Terminal Aerodrome Forecast
Issued by NWS Wilmington, OH

Current Version | Previous Version | Text Only | Print | Product List | Glossary Off
Versions: 1 2 3 4 5 6 7 8 9 10 11 12 13 14 15 16 17 18 19

000
FTUS41 KILN 271600 AAB
TAFDAY
TAF AMD
KDAY 271608Z 2716/2812 30012G20KT P6SM VCSH BKN025
      TEMPO 2718/2722 5SM -SHSN OVC015
     FM280000 29010KT P6SM VCSH OVC025
     FM280600 29005KT P6SM BKN025=

USA.gov is the U.S. government's official web portal to all federal, state and local government web resources and services.